Time;durP1;ratioP1;P1;durP2;ratioP2;P2;SDS_P1;SDS_P2;PMS_P1;PMS_P2;Temp;Humidity;BMP_temperature;BMP_pressure;BME280_temperature;BME280_humidity;BME280_pressure;Samples;Min_cycle;Max_cycle;Signal;HPM_P1;HPM_P2
2023/07/20 00:00:16;;;;;;;1.37;1.20;;;19.80;74.90;;;22.64;49.29;101198.31;5052184;28;20213;-61
2023/07/20 00:02:43;;;;;;;2.23;1.13;;;19.80;74.90;;;22.63;49.64;101196.69;5033612;28;20194;-62
2023/07/20 00:05:10;;;;;;;2.63;1.50;;;19.80;75.10;;;22.62;49.50;101197.75;5033813;28;20190;-62
2023/07/20 00:07:37;;;;;;;1.83;1.30;;;19.70;75.10;;;22.64;49.44;101192.94;5033612;28;20528;-62
2023/07/20 00:10:07;;;;;;;1.10;1.10;;;19.80;75.30;;;22.65;49.44;101194.59;5033378;28;20210;-61
2023/07/20 00:12:34;;;;;;;1.93;1.43;;;19.80;75.30;;;22.65;49.22;101197.28;5034128;28;20190;-60
2023/07/20 00:15:01;;;;;;;1.20;1.10;;;19.80;75.10;;;22.63;49.62;101183.25;5052451;28;20277;-61
2023/07/20 00:17:28;;;;;;;1.23;1.13;;;19.80;75.10;;;22.62;49.25;101187.00;5053409;28;20224;-61
2023/07/20 00:19:55;;;;;;;2.27;1.30;;;19.80;75.10;;;22.62;49.53;101191.56;5053050;28;20213;-61
2023/07/20 00:22:22;;;;;;;1.30;1.20;;;19.70;75.00;;;22.59;49.58;101190.16;5053174;28;20201;-63
2023/07/20 00:24:49;;;;;;;1.33;1.23;;;19.70;75.20;;;22.61;49.57;101182.69;5055180;28;20234;-62
2023/07/20 00:27:18;;;;;;;1.50;1.40;;;19.70;75.40;;;22.63;49.59;101191.31;5033518;28;20218;-63
2023/07/20 00:29:45;;;;;;;1.43;1.33;;;19.80;75.40;;;22.66;49.63;101188.16;5052825;28;20232;-63
2023/07/20 00:32:11;;;;;;;1.90;1.40;;;19.80;75.20;;;22.67;49.57;101187.09;5053492;28;20190;-62
2023/07/20 00:34:38;;;;;;;1.53;1.20;;;19.80;75.30;;;22.71;49.41;101185.56;5053225;28;20202;-63
2023/07/20 00:37:06;;;;;;;1.10;1.00;;;19.80;75.00;;;22.70;49.15;101185.81;5053103;28;20193;-61
2023/07/20 00:39:33;;;;;;;2.57;1.20;;;19.80;75.00;;;22.70;49.23;101183.91;5052951;28;20710;-63
2023/07/20 00:42:00;;;;;;;1.13;1.10;;;19.80;74.70;;;22.70;49.20;101185.81;5053207;28;20277;-62
2023/07/20 00:44:28;;;;;;;1.60;1.00;;;19.80;74.80;;;22.69;49.26;101190.34;5054379;28;20194;-61
2023/07/20 00:46:56;;;;;;;1.80;1.00;;;19.80;74.80;;;22.69;49.09;101190.34;5056753;28;20297;-61
2023/07/20 00:49:23;;;;;;;2.17;1.37;;;19.80;74.70;;;22.66;49.08;101185.47;5056471;28;20688;-61
2023/07/20 00:51:51;;;;;;;2.97;2.47;;;19.80;74.70;;;22.64;49.11;101186.75;5056857;28;20194;-62
2023/07/20 00:54:18;;;;;;;2.80;2.60;;;19.80;75.20;;;22.59;49.57;101192.81;5056751;28;20268;-61
2023/07/20 00:56:46;;;;;;;3.93;3.40;;;19.70;75.70;;;22.53;49.88;101198.34;5054847;28;20193;-61
2023/07/20 00:59:14;;;;;;;8.77;3.43;;;19.70;76.10;;;22.45;50.79;101196.06;5055733;28;20279;-60
2023/07/20 01:01:42;;;;;;;7.90;4.63;;;19.60;76.80;;;22.38;50.79;101190.84;5054532;28;20196;-62
2023/07/20 01:04:09;;;;;;;7.63;6.07;;;19.60;77.80;;;22.33;51.44;101195.28;5056769;28;20194;-62
2023/07/20 01:06:54;;;;;;;7.70;4.63;;;19.50;78.70;;;22.21;51.68;101196.16;5056647;28;20214;-62
2023/07/20 01:09:34;;;;;;;4.87;3.57;;;19.50;79.30;;;22.15;51.87;101199.81;5056453;28;20221;-62
2023/07/20 01:12:10;;;;;;;2.73;2.20;;;19.40;79.60;;;22.11;52.88;101193.28;5056805;28;20190;-61
2023/07/20 01:14:37;;;;;;;2.67;1.90;;;19.40;80.30;;;22.09;53.26;101194.56;5056841;28;20205;-61
2023/07/20 01:17:06;;;;;;;1.60;1.50;;;19.30;80.80;;;22.07;53.81;101197.50;5054797;28;20269;-62
2023/07/20 01:19:33;;;;;;;4.00;1.87;;;19.20;81.70;;;22.07;53.97;101194.00;5056218;28;20213;-61
2023/07/20 01:22:15;;;;;;;1.50;1.40;;;19.20;81.60;;;22.04;53.94;101189.13;5056316;28;20190;-62
2023/07/20 01:25:16;;;;;;;1.30;1.20;;;19.20;81.90;;;21.98;53.63;101185.53;5056204;28;20190;-61
2023/07/20 01:28:27;;;;;;;0.90;0.90;;;19.20;81.70;;;21.88;53.93;101192.56;5056196;28;20201;-62
2023/07/20 01:31:18;;;;;;;2.50;1.10;;;19.20;81.70;;;21.85;53.98;101195.69;5046964;28;20325;-62
2023/07/20 01:33:47;;;;;;;1.37;1.27;;;19.10;82.30;;;21.89;54.25;101194.19;5036661;28;20179;-62
2023/07/20 01:36:17;;;;;;;1.47;1.37;;;19.10;82.00;;;21.86;53.99;101194.66;5036236;28;20194;-63
2023/07/20 01:38:46;;;;;;;1.10;1.00;;;19.00;82.00;;;21.81;54.30;101186.47;5035783;28;20446;-62
2023/07/20 01:41:14;;;;;;;1.20;1.10;;;19.00;82.30;;;21.80;55.47;101184.88;5035657;28;20198;-63
2023/07/20 01:43:43;;;;;;;1.60;1.50;;;19.00;83.30;;;21.83;54.93;101184.38;5035870;28;20210;-61
2023/07/20 01:46:10;;;;;;;1.53;1.43;;;19.00;83.40;;;21.83;55.12;101187.88;5035706;28;20218;-62
2023/07/20 01:48:38;;;;;;;1.50;1.40;;;19.00;83.70;;;21.86;55.35;101190.13;5054424;28;20197;-61
2023/07/20 01:51:05;;;;;;;1.37;1.27;;;19.00;83.80;;;21.86;55.67;101178.56;5055720;28;20197;-61
2023/07/20 01:53:32;;;;;;;1.30;1.20;;;19.00;84.00;;;21.89;55.25;101183.47;5055388;28;20208;-61
2023/07/20 01:55:59;;;;;;;1.70;1.07;;;19.00;83.90;;;21.89;55.23;101186.16;5055572;28;20197;-62
2023/07/20 01:58:26;;;;;;;1.47;1.37;;;19.00;83.70;;;21.84;54.99;101183.34;5054990;28;20193;-63
2023/07/20 02:00:53;;;;;;;1.30;1.20;;;19.00;83.80;;;21.82;54.98;101182.75;5048467;28;20224;-62
2023/07/20 02:03:21;;;;;;;1.13;1.03;;;19.00;83.80;;;21.77;55.10;101186.16;5035954;28;20191;-62
2023/07/20 02:05:50;;;;;;;1.37;1.10;;;19.00;83.70;;;21.74;55.08;101189.31;5035566;28;20195;-62
2023/07/20 02:08:18;;;;;;;2.13;1.13;;;18.90;83.90;;;21.68;55.20;101181.41;5035747;28;20191;-63
2023/07/20 02:10:46;;;;;;;1.10;1.00;;;18.80;84.10;;;21.66;55.53;101178.13;5033969;28;20279;-63
2023/07/20 02:13:13;;;;;;;1.97;1.87;;;18.80;84.60;;;21.65;56.04;101192.59;5035364;28;20192;-61
2023/07/20 02:15:42;;;;;;;2.23;1.20;;;18.80;85.10;;;21.64;56.42;101185.59;5035765;28;20197;-61
2023/07/20 02:18:09;;;;;;;2.10;1.90;;;18.80;85.40;;;21.62;56.23;101176.97;5035650;28;20217;-62
2023/07/20 02:20:36;;;;;;;2.50;2.30;;;18.80;85.60;;;21.61;55.99;101188.75;5042634;28;20205;-59
2023/07/20 02:23:04;;;;;;;1.93;1.43;;;18.70;85.70;;;21.61;56.77;101192.22;5055053;28;20689;-63
2023/07/20 02:25:32;;;;;;;1.30;1.20;;;18.80;86.20;;;21.60;56.31;101185.25;5054829;28;20273;-60
2023/07/20 02:27:59;;;;;;;2.10;1.20;;;18.70;85.90;;;21.55;56.31;101185.13;5043872;28;20223;-62
2023/07/20 02:30:27;;;;;;;1.27;0.90;;;18.70;85.50;;;21.51;55.58;101175.97;5034521;28;20252;-61
2023/07/20 02:32:54;;;;;;;1.93;0.90;;;18.60;84.10;;;21.47;55.08;101174.78;5034803;28;20601;-62
2023/07/20 02:35:21;;;;;;;0.80;0.80;;;18.60;83.40;;;21.43;55.37;101173.63;5045624;28;20198;-61
2023/07/20 02:37:48;;;;;;;0.93;0.80;;;18.60;83.20;;;21.39;55.05;101173.28;5054734;28;20617;-61
2023/07/20 02:40:16;;;;;;;1.50;0.77;;;18.50;82.70;;;21.40;54.58;101180.25;5054225;28;20217;-62
2023/07/20 02:42:43;;;;;;;0.90;0.80;;;18.50;82.80;;;21.40;54.98;101174.91;5055138;28;20269;-62
2023/07/20 02:45:10;;;;;;;0.80;0.80;;;18.50;83.40;;;21.44;55.27;101176.06;5054951;28;20576;-60
2023/07/20 02:47:37;;;;;;;1.00;0.90;;;18.50;83.90;;;21.49;55.29;101183.38;5054604;28;20248;-62
2023/07/20 02:50:08;;;;;;;0.87;0.80;;;18.60;84.00;;;21.53;55.40;101179.22;5039492;28;20218;-61
2023/07/20 02:52:35;;;;;;;0.70;0.70;;;18.60;83.70;;;21.57;55.23;101189.22;5034641;28;20179;-63
2023/07/20 02:55:02;;;;;;;0.97;0.80;;;18.70;83.70;;;21.59;55.19;101187.13;5045464;28;20200;-62
2023/07/20 02:57:31;;;;;;;1.33;0.90;;;18.70;83.50;;;21.59;55.40;101184.44;5054026;28;20185;-62
2023/07/20 02:59:58;;;;;;;1.27;1.17;;;18.70;84.00;;;21.58;55.14;101182.78;5054310;28;20232;-62
2023/07/20 03:02:25;;;;;;;1.87;1.30;;;18.70;84.50;;;21.58;55.88;101182.78;5053911;28;20229;-64
2023/07/20 03:04:52;;;;;;;1.20;1.10;;;18.70;85.00;;;21.62;55.98;101182.31;5036247;28;20277;-62
2023/07/20 03:07:19;;;;;;;2.70;1.07;;;18.80;85.10;;;21.64;56.09;101183.72;5053302;28;20248;-64
2023/07/20 03:09:47;;;;;;;1.40;1.30;;;18.80;85.00;;;21.66;56.11;101183.47;5053962;28;20210;-60
2023/07/20 03:12:15;;;;;;;0.83;0.83;;;18.80;84.90;;;21.65;55.63;101187.22;5051287;28;20195;-63
2023/07/20 03:14:43;;;;;;;2.30;1.20;;;18.80;84.90;;;21.64;55.92;101185.59;5054214;28;20268;-63
2023/07/20 03:17:10;;;;;;;2.60;1.17;;;18.70;84.90;;;21.62;56.57;101187.69;5051548;28;20273;-61
2023/07/20 03:19:37;;;;;;;1.63;1.40;;;18.70;85.40;;;21.62;55.67;101188.50;5033841;28;20781;-63
2023/07/20 03:22:04;;;;;;;1.30;1.20;;;18.70;85.20;;;21.61;56.45;101186.88;5033970;28;20297;-62
2023/07/20 03:24:31;;;;;;;1.43;1.33;;;18.70;85.40;;;21.61;56.54;101180.72;5034206;28;20284;-62
2023/07/20 03:26:59;;;;;;;1.43;1.33;;;18.70;85.50;;;21.60;56.37;101185.25;5033783;28;20243;-60
2023/07/20 03:29:26;;;;;;;1.60;1.50;;;18.70;85.90;;;21.62;56.68;101182.31;5033731;28;20594;-59
2023/07/20 03:31:55;;;;;;;1.73;1.47;;;18.70;85.70;;;21.61;56.84;101186.06;5039964;28;20230;-61
2023/07/20 03:34:22;;;;;;;2.53;1.70;;;18.70;85.80;;;21.61;56.27;101189.53;5054021;28;20216;-62
2023/07/20 03:36:48;;;;;;;1.83;1.30;;;18.80;85.80;;;21.64;56.53;101196.31;5053648;28;20281;-59
2023/07/20 03:39:15;;;;;;;2.67;1.83;;;18.70;86.30;;;21.66;56.65;101195.00;5053580;28;20288;-62
2023/07/20 03:41:43;;;;;;;1.90;1.80;;;18.80;86.20;;;21.67;56.35;101193.16;5053518;28;20209;-62
2023/07/20 03:44:10;;;;;;;2.27;2.10;;;18.80;86.00;;;21.67;55.94;101206.56;5053173;28;20225;-61
2023/07/20 03:46:37;;;;;;;2.10;1.93;;;18.80;85.80;;;21.63;56.05;101205.41;5043285;28;20623;-62
2023/07/20 03:49:06;;;;;;;1.87;1.73;;;18.80;85.90;;;21.62;56.62;101203.75;5033042;28;20687;-62
2023/07/20 03:51:33;;;;;;;2.30;1.80;;;18.70;85.90;;;21.62;56.47;101195.72;5033575;28;20190;-62
2023/07/20 03:54:00;;;;;;;1.70;1.60;;;18.70;86.10;;;21.62;56.14;101193.88;5036081;28;20194;-63
2023/07/20 03:56:27;;;;;;;1.93;1.73;;;18.70;86.10;;;21.64;56.65;101201.66;5053548;28;20651;-65
2023/07/20 03:58:54;;;;;;;1.80;1.70;;;18.70;86.40;;;21.68;56.43;101202.84;5052897;28;20620;-61
2023/07/20 04:01:21;;;;;;;1.80;1.70;;;18.70;86.20;;;21.67;56.43;101211.91;5049973;28;20211;-62
2023/07/20 04:03:48;;;;;;;1.63;1.53;;;18.70;85.80;;;21.64;55.91;101212.38;5053564;28;20193;-66
2023/07/20 04:06:17;;;;;;;1.70;1.60;;;18.70;85.80;;;21.63;56.88;101218.81;5053447;28;20200;-62
2023/07/20 04:08:47;;;;;;;2.97;1.60;;;18.70;86.10;;;21.64;56.93;101212.38;5050568;28;20614;-62
2023/07/20 04:11:14;;;;;;;2.17;1.60;;;18.70;86.40;;;21.66;56.94;101215.63;5053463;28;20232;-59
2023/07/20 04:13:41;;;;;;;2.30;2.10;;;18.70;86.50;;;21.70;56.78;101212.28;5053038;28;20217;-62
2023/07/20 04:16:08;;;;;;;1.83;1.73;;;18.70;86.30;;;21.73;56.47;101216.34;5035720;28;20277;-62
2023/07/20 04:18:35;;;;;;;1.97;1.80;;;18.80;86.50;;;21.74;56.69;101207.25;5036177;28;20217;-64
2023/07/20 04:21:02;;;;;;;3.40;1.93;;;18.80;86.20;;;21.77;56.71;101212.97;5037574;28;20210;-61
2023/07/20 04:23:30;;;;;;;3.67;2.00;;;18.80;86.40;;;21.81;56.41;101214.09;5037223;28;20187;-62
2023/07/20 04:25:57;;;;;;;1.90;1.70;;;18.90;86.20;;;21.82;56.54;101213.03;5037305;28;20270;-62
2023/07/20 04:28:24;;;;;;;2.07;1.83;;;18.90;86.10;;;21.82;56.51;101218.41;5037023;28;20210;-64
2023/07/20 04:30:52;;;;;;;3.23;1.90;;;18.90;85.80;;;21.81;56.18;101226.69;5057148;28;20214;-61
2023/07/20 04:33:20;;;;;;;3.00;2.30;;;18.90;85.90;;;21.80;56.22;101228.53;5056961;28;20194;-62
2023/07/20 04:35:51;;;;;;;2.53;2.00;;;18.90;85.70;;;21.76;55.92;101224.72;5057255;28;20623;-62
2023/07/20 04:38:19;;;;;;;2.27;2.00;;;18.90;85.60;;;21.75;56.39;101219.59;5056482;28;20217;-62
2023/07/20 04:40:49;;;;;;;3.67;2.50;;;18.90;86.10;;;21.73;56.32;101227.06;5056120;28;20759;-60
2023/07/20 04:43:17;;;;;;;3.87;1.90;;;18.90;86.00;;;21.72;56.51;101230.78;5051220;28;20286;-61
2023/07/20 04:45:45;;;;;;;2.63;1.80;;;18.80;85.90;;;21.71;56.20;101231.81;5036770;28;20195;-62
2023/07/20 04:48:15;;;;;;;3.90;2.50;;;18.80;85.80;;;21.74;56.19;101237.53;5036391;28;20235;-62
2023/07/20 04:50:45;;;;;;;2.60;2.10;;;18.80;85.70;;;21.72;56.37;101236.16;5036391;28;20206;-62
2023/07/20 04:53:13;;;;;;;2.03;1.90;;;18.80;85.80;;;21.75;56.14;101230.31;5037220;28;20182;-63
2023/07/20 04:55:47;;;;;;;3.37;2.37;;;18.80;86.00;;;21.75;56.31;101230.31;5052895;28;20198;-63
2023/07/20 04:58:15;;;;;;;3.93;2.43;;;18.80;86.00;;;21.77;56.35;101233.59;5051579;28;20256;-62
2023/07/20 05:00:42;;;;;;;5.23;2.57;;;18.80;85.70;;;21.74;56.13;101234.88;5036570;28;20264;-62
2023/07/20 05:03:09;;;;;;;4.47;2.67;;;18.80;85.50;;;21.72;55.92;101236.16;5036687;28;20249;-63
2023/07/20 05:05:36;;;;;;;2.83;2.60;;;18.80;85.20;;;21.68;55.68;101240.34;5047738;28;20251;-62
2023/07/20 05:08:04;;;;;;;2.17;2.07;;;18.80;85.20;;;21.66;56.18;101240.56;5055931;28;20217;-63
2023/07/20 05:10:32;;;;;;;2.63;2.20;;;18.80;85.20;;;21.62;56.13;101234.06;5055954;28;20599;-62
2023/07/20 05:12:59;;;;;;;2.60;1.87;;;18.80;85.00;;;21.58;55.54;101238.28;5055303;28;20276;-62
2023/07/20 05:15:27;;;;;;;3.67;2.50;;;18.70;84.90;;;21.56;56.04;101238.47;5056344;28;20308;-63
2023/07/20 05:17:54;;;;;;;2.23;2.03;;;18.70;85.40;;;21.55;55.85;101231.50;5056293;28;20377;-60
2023/07/20 05:20:21;;;;;;;2.70;2.23;;;18.70;85.00;;;21.55;56.31;101236.88;5055549;28;20565;-64
2023/07/20 05:22:48;;;;;;;2.97;1.70;;;18.70;84.90;;;21.52;55.72;101237.31;5055747;28;20200;-62
2023/07/20 05:25:18;;;;;;;2.40;2.03;;;18.70;84.60;;;21.49;55.44;101236.97;5056285;28;20193;-61
2023/07/20 05:27:46;;;;;;;2.53;1.90;;;18.70;84.60;;;21.47;55.94;101245.25;5036694;28;20218;-59
2023/07/20 05:30:13;;;;;;;2.50;2.30;;;18.70;84.60;;;21.48;55.37;101252.25;5034727;28;20295;-61
2023/07/20 05:32:41;;;;;;;1.80;1.70;;;18.60;84.60;;;21.48;55.62;101251.44;5035958;28;20639;-63
2023/07/20 05:35:11;;;;;;;2.70;2.50;;;18.60;84.60;;;21.48;56.05;101249.56;5036025;28;20194;-61
2023/07/20 05:37:38;;;;;;;3.90;2.43;;;18.60;84.70;;;21.51;55.65;101245.63;5035598;28;20182;-63
2023/07/20 05:40:07;;;;;;;2.00;1.80;;;18.60;84.80;;;21.54;55.98;101245.13;5037980;28;22084;-63
2023/07/20 05:42:34;;;;;;;3.87;3.07;;;18.70;85.10;;;21.58;55.40;101257.81;5055517;28;20205;-63
2023/07/20 05:45:02;;;;;;;2.60;2.03;;;18.70;84.60;;;21.63;55.79;101254.47;5055510;28;20220;-62
2023/07/20 05:47:29;;;;;;;2.40;2.20;;;18.80;84.70;;;21.70;55.64;101265.06;5055704;28;20308;-63
2023/07/20 05:49:57;;;;;;;4.20;2.03;;;18.80;84.40;;;21.72;55.03;101263.78;5054893;28;20248;-63
2023/07/20 05:52:24;;;;;;;2.37;2.00;;;18.90;84.00;;;21.76;54.96;101258.75;5054498;28;20613;-62
2023/07/20 05:54:51;;;;;;;2.70;1.97;;;18.90;83.60;;;21.80;54.53;101259.91;5054728;28;20189;-63
2023/07/20 05:57:18;;;;;;;3.50;1.70;;;18.90;83.40;;;21.84;54.66;101261.06;5054689;28;20269;-60
2023/07/20 05:59:45;;;;;;;3.30;1.60;;;18.90;83.40;;;21.90;54.40;101266.31;5054692;28;20212;-63
2023/07/20 06:02:12;;;;;;;3.87;1.80;;;19.00;83.40;;;21.96;54.46;101265.41;5054366;28;20221;-63
2023/07/20 06:04:40;;;;;;;3.70;2.37;;;19.00;83.30;;;22.05;54.12;101263.97;5054471;28;20686;-63
2023/07/20 06:07:08;;;;;;;3.57;2.03;;;19.10;82.90;;;22.14;53.65;101261.72;5055145;28;20194;-62
2023/07/20 06:09:36;;;;;;;4.53;2.10;;;19.20;82.60;;;22.21;53.63;101265.09;5043589;28;20214;-60
2023/07/20 06:12:04;;;;;;;2.80;2.03;;;19.30;82.00;;;22.26;53.30;101265.19;5035183;28;20677;-63
2023/07/20 06:14:31;;;;;;;2.20;2.00;;;19.30;81.30;;;22.28;52.58;101260.41;5035002;28;20190;-66
2023/07/20 06:16:59;;;;;;;2.87;2.10;;;19.40;80.70;;;22.31;52.72;101259.94;5035315;28;20195;-60
2023/07/20 06:19:26;;;;;;;2.37;1.77;;;19.40;80.90;;;22.36;52.54;101265.41;5034192;28;20210;-63
2023/07/20 06:21:53;;;;;;;2.20;2.00;;;19.40;80.50;;;22.42;52.10;101269.78;5035093;28;20197;-63
2023/07/20 06:24:21;;;;;;;3.37;1.60;;;19.50;79.60;;;22.46;51.53;101273.66;5048293;28;20194;-62
2023/07/20 06:26:48;;;;;;;2.50;1.97;;;19.50;79.10;;;22.49;51.38;101269.69;5054816;28;20186;-63
2023/07/20 06:29:15;;;;;;;1.97;1.73;;;19.60;79.00;;;22.51;51.09;101272.94;5053865;28;20288;-62
2023/07/20 06:31:42;;;;;;;3.63;2.10;;;19.60;78.60;;;22.51;51.31;101279.09;5054291;28;20273;-63
2023/07/20 06:34:10;;;;;;;2.70;1.93;;;19.60;78.50;;;22.54;51.19;101272.41;5054143;28;20553;-61
2023/07/20 06:36:37;;;;;;;2.03;1.60;;;19.60;78.50;;;22.58;50.64;101278.97;5053921;28;20190;-63
2023/07/20 06:39:04;;;;;;;3.40;2.10;;;19.60;78.00;;;22.63;50.83;101281.78;5036287;28;20376;-61
2023/07/20 06:41:35;;;;;;;2.40;1.30;;;19.70;78.10;;;22.66;50.56;101282.09;5033986;28;20190;-65
2023/07/20 06:44:05;;;;;;;4.47;2.07;;;19.70;77.80;;;22.69;50.43;101278.13;5033917;28;20538;-60
2023/07/20 06:46:32;;;;;;;2.30;1.77;;;19.80;77.40;;;22.72;50.09;101280.31;5032248;28;20269;-62
2023/07/20 06:48:59;;;;;;;5.23;1.87;;;19.80;76.90;;;22.70;49.76;101277.06;5033966;28;20226;-61
2023/07/20 06:51:29;;;;;;;7.87;5.67;;;19.80;76.30;;;22.72;49.96;101281.16;5034806;28;20251;-62
2023/07/20 06:53:56;;;;;;;3.33;2.23;;;19.80;76.70;;;22.79;49.71;101281.00;5053724;28;20259;-62
2023/07/20 06:56:23;;;;;;;4.30;1.83;;;19.80;76.20;;;22.81;49.37;101282.38;5054011;28;20201;-61
2023/07/20 06:58:54;;;;;;;4.70;2.50;;;19.80;75.90;;;22.83;49.35;101276.75;5052978;28;20197;-61
2023/07/20 07:01:21;;;;;;;1.80;1.33;;;19.90;76.00;;;22.84;49.01;101284.56;5053219;28;20353;-61
2023/07/20 07:03:49;;;;;;;3.60;1.70;;;19.90;75.30;;;22.86;48.92;101282.47;5053860;28;20608;-62
2023/07/20 07:06:22;;;;;;;2.10;1.27;;;19.90;75.30;;;22.89;48.76;101290.03;5036774;28;20264;-62
2023/07/20 07:08:50;;;;;;;3.73;1.70;;;19.90;75.00;;;22.91;48.50;101284.44;5033360;28;20210;-61
2023/07/20 07:11:17;;;;;;;3.07;1.80;;;19.90;74.70;;;22.90;48.41;101282.78;5034385;28;20574;-61
2023/07/20 07:13:46;;;;;;;4.30;1.83;;;20.00;74.60;;;22.90;48.16;101288.16;5034422;28;20190;-61
2023/07/20 07:16:18;;;;;;;2.50;1.37;;;20.00;74.00;;;22.88;47.71;101291.09;5033788;28;20191;-62
2023/07/20 07:18:47;;;;;;;2.23;1.57;;;20.00;73.10;;;22.88;47.49;101293.78;5033624;28;20224;-62
2023/07/20 07:21:14;;;;;;;5.87;1.60;;;20.00;72.60;;;22.88;47.02;101282.22;5045769;28;20221;-62
2023/07/20 07:23:41;;;;;;;3.23;1.90;;;20.00;72.10;;;22.87;47.09;101286.78;5053731;28;20726;-61
2023/07/20 07:26:09;;;;;;;2.13;1.40;;;20.00;72.00;;;22.88;47.04;101290.28;5054128;28;20473;-62
2023/07/20 07:28:37;;;;;;;2.37;1.17;;;20.00;71.90;;;22.95;46.88;101288.25;5053671;28;20225;-62
2023/07/20 07:31:07;;;;;;;2.40;1.50;;;20.00;71.90;;;23.07;46.68;101296.22;5054192;28;20211;-61
2023/07/20 07:33:36;;;;;;;4.10;1.93;;;20.00;71.80;;;23.20;46.26;101293.25;5054060;28;20182;-62
2023/07/20 07:36:04;;;;;;;4.07;1.57;;;20.10;71.70;;;23.32;45.83;101296.66;5036602;28;20674;-62
2023/07/20 07:38:31;;;;;;;4.30;1.87;;;20.20;71.10;;;23.42;45.81;101296.84;5033470;28;20682;-62
2023/07/20 07:41:18;;;;;;;4.83;2.50;;;20.30;70.80;;;23.52;45.36;101295.13;5033263;28;20251;-66
2023/07/20 07:43:45;;;;;;;4.70;1.50;;;20.40;70.10;;;23.59;44.98;101294.94;5033742;28;20228;-62
2023/07/20 07:46:13;;;;;;;2.03;1.47;;;20.50;69.90;;;23.64;44.95;101295.03;5034080;28;20204;-63
2023/07/20 07:48:42;;;;;;;2.33;1.50;;;20.50;69.60;;;23.70;44.68;101298.63;5034582;28;20218;-61
2023/07/20 07:51:09;;;;;;;3.53;1.77;;;20.60;69.00;;;23.73;44.37;101295.41;5053126;28;20194;-62
2023/07/20 07:53:37;;;;;;;5.13;1.50;;;20.70;68.60;;;23.76;43.61;101308.38;5053174;28;20216;-63
2023/07/20 07:56:07;;;;;;;3.37;1.67;;;20.70;67.10;;;23.77;43.27;101305.41;5050739;28;20217;-64
2023/07/20 07:58:34;;;;;;;1.80;1.50;;;20.80;67.30;;;23.79;43.66;101307.88;5040106;28;20633;-63
2023/07/20 08:01:01;;;;;;;3.43;1.27;;;20.80;67.30;;;23.85;43.24;101305.00;5044878;28;20226;-63
2023/07/20 08:03:28;;;;;;;2.87;1.63;;;20.90;66.80;;;23.96;43.37;101309.44;5043038;28;20377;-62
2023/07/20 08:05:58;;;;;;;4.17;2.10;;;20.90;67.00;;;24.16;42.67;101308.94;5034448;28;20610;-62
2023/07/20 08:08:35;;;;;;;3.30;2.07;;;21.00;65.90;;;24.34;42.32;101315.91;5033551;28;20234;-63
2023/07/20 08:11:08;;;;;;;1.77;1.63;;;21.10;64.90;;;24.53;41.55;101314.50;5053799;28;20724;-66
2023/07/20 08:13:38;;;;;;;2.10;1.60;;;21.20;64.90;;;24.91;40.65;101321.66;5037727;28;20272;-63
2023/07/20 08:16:05;;;;;;;3.10;1.93;;;21.40;64.70;;;25.03;40.08;101309.66;5052793;28;20239;-63
2023/07/20 08:18:42;;;;;;;3.67;2.90;;;21.60;63.20;;;24.98;39.81;101316.88;5053258;28;20269;-63
2023/07/20 08:21:10;;;;;;;4.40;2.00;;;21.60;62.50;;;24.92;40.23;101317.88;5037747;28;20222;-62
2023/07/20 08:23:37;;;;;;;4.00;1.40;;;21.70;62.40;;;25.15;39.95;101321.06;5032954;28;20205;-62
2023/07/20 08:26:04;;;;;;;1.73;1.37;;;21.70;61.30;;;26.20;38.48;101318.31;5032699;28;20196;-63
2023/07/20 08:28:32;;;;;;;2.87;1.43;;;21.90;62.30;;;27.71;36.29;101315.06;5032547;28;20253;-65
2023/07/20 08:30:59;;;;;;;3.47;1.70;;;22.40;62.10;;;29.30;33.66;101316.44;5032587;28;20260;-62
2023/07/20 08:33:37;;;;;;;1.83;1.67;;;23.10;60.90;;;31.05;31.91;101313.78;5032852;28;20195;-65
2023/07/20 08:36:07;;;;;;;3.53;2.20;;;24.00;59.60;;;32.55;29.35;101312.03;5038493;28;20226;-63
2023/07/20 08:38:39;;;;;;;5.03;1.97;;;25.00;56.50;;;33.60;26.95;101313.31;5036826;28;20659;-63
2023/07/20 08:41:07;;;;;;;6.17;2.60;;;25.90;52.10;;;34.27;25.86;101317.44;5037063;28;20224;-62
2023/07/20 08:43:37;;;;;;;2.73;2.43;;;26.70;49.90;;;35.04;24.61;101320.22;5032557;28;20205;-63
2023/07/20 08:46:05;;;;;;;2.40;2.00;;;27.40;47.50;;;35.75;23.42;101318.63;5032217;28;20635;-63
2023/07/20 08:48:33;;;;;;;1.83;1.70;;;28.10;45.90;;;36.15;21.98;101318.28;5036145;28;20283;-64
2023/07/20 08:51:04;;;;;;;2.17;1.67;;;28.60;42.00;;;36.22;22.41;101326.78;5045510;28;20236;-61
2023/07/20 08:53:33;;;;;;;4.60;4.20;;;29.00;41.50;;;36.55;21.08;101324.97;5032594;28;20193;-61
2023/07/20 08:56:04;;;;;;;2.05;1.85;;;29.40;39.10;;;36.83;21.44;101331.50;5046872;28;20305;-64
2023/07/20 08:58:33;;;;;;;5.28;1.88;;;29.70;38.30;;;37.37;21.55;101323.25;5048545;28;20720;-62
2023/07/20 09:01:02;;;;;;;4.10;1.92;;;30.10;39.00;;;38.13;20.77;101327.03;5044404;28;20304;-64
2023/07/20 09:03:29;;;;;;;4.80;2.17;;;30.50;38.10;;;38.86;19.90;101324.94;5042177;28;20198;-62
2023/07/20 09:05:56;;;;;;;1.88;1.70;;;31.00;37.20;;;39.40;19.59;101321.69;5054558;28;20251;-63
2023/07/20 09:08:23;;;;;;;3.05;1.70;;;31.50;36.20;;;39.82;18.50;101323.56;5054760;28;20617;-63
2023/07/20 09:10:50;;;;;;;6.28;2.30;;;31.80;34.00;;;39.92;18.61;101323.03;5055754;28;20245;-64
2023/07/20 09:13:18;;;;;;;1.88;1.77;;;32.20;33.60;;;40.33;17.99;101320.81;5055838;28;20201;-63
2023/07/20 09:15:52;;;;;;;4.10;2.88;;;32.50;32.60;;;40.73;17.83;101318.53;5056385;28;20248;-60
2023/07/20 09:18:29;;;;;;;2.75;1.92;;;32.80;32.80;;;41.19;16.88;101325.00;5055102;28;20189;-64
2023/07/20 09:20:59;;;;;;;5.28;2.03;;;32.90;30.20;;;41.20;17.26;101326.56;5048637;28;20316;-62
2023/07/20 09:23:32;;;;;;;4.38;2.00;;;33.10;30.80;;;41.37;16.92;101315.06;5055387;28;20225;-62
2023/07/20 09:25:59;;;;;;;2.90;1.85;;;33.30;30.40;;;41.78;17.19;101324.47;5054018;28;20212;-61
2023/07/20 09:28:28;;;;;;;2.13;1.50;;;33.50;30.80;;;41.87;16.59;101327.78;5054194;28;20247;-62
2023/07/20 09:30:57;;;;;;;1.70;1.52;;;33.70;29.60;;;41.89;15.41;101330.97;5054271;28;20463;-62
2023/07/20 09:33:24;;;;;;;1.88;1.77;;;33.80;28.60;;;41.72;15.95;101328.75;5054804;28;20198;-61
2023/07/20 09:36:02;;;;;;;1.92;1.70;;;33.90;28.90;;;41.79;15.97;101321.31;5054444;28;20255;-61
2023/07/20 09:38:49;;;;;;;1.52;1.42;;;34.00;28.60;;;41.89;15.85;101314.34;5047839;28;20190;-62
2023/07/20 09:41:21;;;;;;;2.83;1.83;;;34.20;28.20;;;41.84;15.56;101328.53;5054625;28;20206;-62
2023/07/20 09:43:54;;;;;;;1.65;1.45;;;34.30;27.70;;;41.87;15.55;101322.25;5051829;28;20310;-62
2023/07/20 09:46:21;;;;;;;1.98;1.77;;;34.30;27.70;;;42.03;15.80;101320.13;5053973;28;20634;-61
2023/07/20 09:48:53;;;;;;;1.63;1.50;;;34.30;27.80;;;42.25;15.35;101310.97;5053623;28;20201;-64
2023/07/20 09:51:24;;;;;;;5.47;1.90;;;34.30;27.80;;;42.50;15.34;101316.88;5522831;22;20354;-62
2023/07/20 09:53:54;;;;;;;1.67;1.50;;;34.40;27.90;;;41.74;16.19;101313.38;5009468;28;20588;-65
2023/07/20 09:56:23;;;;;;;2.58;1.60;;;34.40;28.30;;;40.21;16.88;101312.66;5011612;28;20219;-63
2023/07/20 09:58:52;;;;;;;2.47;2.28;;;34.20;28.20;;;38.79;18.38;101308.22;5007253;28;20195;-63
2023/07/20 10:01:22;;;;;;;2.55;1.58;;;33.70;28.50;;;38.70;18.48;101315.81;5004442;28;20537;-63
2023/07/20 10:03:58;;;;;;;2.00;1.70;;;33.20;29.00;;;39.27;18.41;101309.94;4997593;28;20199;-63
2023/07/20 10:06:29;;;;;;;1.38;1.27;;;33.00;29.50;;;39.23;17.82;101311.78;5003004;28;20214;-63
2023/07/20 10:09:03;;;;;;;2.03;1.88;;;32.90;29.50;;;38.14;18.80;101314.88;5006294;28;20296;-63
2023/07/20 10:11:37;;;;;;;2.15;1.95;;;32.60;29.40;;;36.75;19.27;101315.94;4999436;28;20517;-63
2023/07/20 10:14:08;;;;;;;4.78;2.40;;;32.10;29.60;;;35.35;21.07;101314.53;5010929;28;20195;-63
2023/07/20 10:16:39;;;;;;;3.15;2.00;;;31.50;31.00;;;34.07;23.73;101334.41;4999429;28;20230;-64
2023/07/20 10:19:13;;;;;;;3.43;3.13;;;30.70;33.50;;;32.88;25.84;101332.53;5005169;28;20298;-63